Airfield :
LOGIN :

Register | Disclaimer

   EN    FR    IT 

 










Legend :    VFR   Marginal VFR   IFR   Intensive IFR   Very Intensive IFR
Visi :
Ceiling :
>= 8 km
>= 3000ft
5 to 8 km
1000 to 3000 ft
1500m to 5 km
500 to 1000 ft
800 to 1500m
200 to 500 ft
< 800m
< 200 ft
Symbols :   Thunderstorms  Fog  Heavy snow  Heavy precipitations  Wind > 20 kt
SIGMETs :     Misc.  Thunderstorms  Icing  Turbulence  Mountain Waves  Volcanic Ashes






- Airport Elevation : 53 ft
- IATA code : LBC


EDHL - Lübeck

CURRENT METAR :
  • 240620Z 19005KT 130V260 9999 FEW010 SCT046 05/02 Q1005

EXPIRED METARs :
  • 240550Z 16004KT 080V230 9999 FEW009 SCT040 05/03 Q1006
  • 240520Z 17004KT 130V220 9999 SCT014 BKN033 OVC039 04/02 Q1006
  • 240450Z 17004KT 120V240 9999 FEW008 BKN012 BKN039 04/02 Q1006
  • 240420Z AUTO 17003KT 130V260 9999 // FEW008/// BKN010/// BKN043/// 03/02 Q1006
  • 240350Z AUTO 16003KT 110V210 9999 // FEW008/// SCT043/// BKN070/// 03/02 Q1006
  • 240320Z AUTO 19003KT 130V250 9999 // FEW011/// BKN038/// BKN043/// 04/02 Q1006
  • 240250Z AUTO 17003KT 130V280 9999 // SCT011/// BKN014/// OVC034/// 04/03 Q1007
  • 240220Z AUTO 17003KT 120V230 9999 // FEW011/// OVC018/// 04/02 Q1007
  • 240150Z AUTO 18004KT 130V270 9999 // BKN019/// 04/02 Q1007

TAF TAF EDHL
Valid from the 24 at 06:00 until the 24 at 15:00 UTC


240524Z 2406/2415 15005KT 9999 BKN014
TEMPO 2406/2409 BKN009
BECMG 2408/2410 BKN015
PROB40
TEMPO 2409/2415 SHRA BKN010 BKN015CB



MET'MAP, your aeronautical weather chart ! - Copyright ORBIFLY December 2007 - Disclaimer

ORBIFLY MET'MAP TEAM :

Programming & Development : Alexandra Zaïnal
Original concept : Baudouin d'Aumeries
Technical & hardware support : Manuel Goepfert
Assistance : Marc-Olivier Méhu




SOURCES & CREDITS :

   NOAA